Search for airport 
image banner adimage banner adimage banner ad
image banner ad

IA37 - Horn Memorial Hospital

Located in Ida Grove, United States

ICAO - IA37, IATA -

Data provided by Airmate  

General information

Coordinates: N42°20'21" W95°27'38"
Elevation is 1325 feet MSL.
Magnetic variation is 05° East
View others Airports in Iowa

Operational data

Special qualification required
Current time UTC:
Current local time:
Weather at : KSLB - Storm Lake Muni ( 34 km )
METAR: KSLB 181735Z AUTO 15008KT 10SM CLR 28/12 A2991 RMK AO2
View NOTAMs / SUP AIP / TFR affecting this airport [VIEW]
Communications frequencies: [VIEW]

Runways:

Airport contact information

Address: Ida Grove United States

Satellite view of IA37